06:45
Airports
History
Links
Donate
Help keep this website running!
PayPal
Bitcoin
This page is community maintained. The information is intended for PC simulator navigation or reference.
Always use approved charts for navigation.
EDXE
Rheine-Eschendorf
Rheine-Eschendorf (EDXE)
Rheine, Nordrhein-Westfalen, Germany (48432)
(C)
Lat/Lng:52° 16' 33" N / 7° 29' 28.8" E
52.275833 / 7.491333
Elevation:131'ft / 40mMSL
ID / ICAO:EDXE
Runways:1
Longest:11-29
Grass 917m / 3,010ft
Controlled:Yes
Nearby Weather06:20 GMT 2017-12-12
Nearby weather at ETHE, RHEINE BENTLAGE located 4.5 nautical miles from EDXE
Altimeter: 29.41
Visibility: 6.2 statute miles
Wind: 12 knots (from 260°)
Temp: 1°c / 34°f
Humidity: %

METAR: ETHE 120620Z 26012KT 9999 -RASN FEW020 BKN050 01/M00 Q0996 BLU

(Powered by phpweather)
Airport Radio Frequencies
Tower: 122.05
Nearby VORs <50NM
Nearby NDBs
Runway 11 / 29
Dimensions:917.3 x 29.9m 3010' x 98'ft
Surface:Grass
Runway 11 [A]Runway 29 [B]
Heading:107°TH 287°TH
Lat:
Lng:
52° 16' 37.36"N
7° 29' 5.51"E
52° 16' 28.64"N
7° 29' 52.09"E
User Notes and Comments
52° 16' 33" N / 7° 29' 28.8" E
Distance To
Airport ID:
Nearby Airports
(C) RHEINE BENTLAGE 4.5 NM
ETHE ( WX ) WNW 283°
(C) Muenster Osnabrueck 12.7 NM
EDDG ( WX ) SE 139°
(C) Nordhorn-Lingen 18.1 NM
EDWN NW 314°
(C) Achmer 19.2 NM
EDXA ENE 68°
(U) Osnabrueck Atterheide 20.6 NM
EDWO E 88°
(C) Twenthe 25.5 NM
EHTW ( WX ) W 269°
(U) Muenster-Telgte 25.8 NM
EDLT SSE 152°
VFR Chart
Flight Planning at SkyVector.com